sensor_id;sensor_type;location;lat;lon;timestamp;P1;durP1;ratioP1;P2;durP2;ratioP2
24206;SDS011;12351;52.284;9.160;2022-11-02T00:00:32;11.22;;;1.50;;
24206;SDS011;12351;52.284;9.160;2022-11-02T00:03:20;7.50;;;1.30;;
24206;SDS011;12351;52.284;9.160;2022-11-02T00:06:08;7.67;;;1.70;;
24206;SDS011;12351;52.284;9.160;2022-11-02T00:08:57;5.42;;;1.30;;
24206;SDS011;12351;52.284;9.160;2022-11-02T00:11:46;8.18;;;1.17;;
24206;SDS011;12351;52.284;9.160;2022-11-02T00:14:34;9.40;;;1.30;;
24206;SDS011;12351;52.284;9.160;2022-11-02T00:17:21;5.80;;;1.20;;
24206;SDS011;12351;52.284;9.160;2022-11-02T00:20:09;11.28;;;1.70;;
24206;SDS011;12351;52.284;9.160;2022-11-02T00:22:59;6.40;;;1.30;;
24206;SDS011;12351;52.284;9.160;2022-11-02T00:25:50;7.55;;;1.15;;
24206;SDS011;12351;52.284;9.160;2022-11-02T00:28:41;8.63;;;1.65;;
24206;SDS011;12351;52.284;9.160;2022-11-02T00:31:28;10.45;;;1.35;;
24206;SDS011;12351;52.284;9.160;2022-11-02T00:34:18;10.48;;;1.17;;
24206;SDS011;12351;52.284;9.160;2022-11-02T00:37:06;8.60;;;1.42;;
24206;SDS011;12351;52.284;9.160;2022-11-02T00:39:54;8.23;;;1.60;;
24206;SDS011;12351;52.284;9.160;2022-11-02T00:42:43;9.55;;;1.67;;
24206;SDS011;12351;52.284;9.160;2022-11-02T00:45:30;8.88;;;1.40;;
24206;SDS011;12351;52.284;9.160;2022-11-02T00:48:17;5.62;;;1.37;;
24206;SDS011;12351;52.284;9.160;2022-11-02T00:51:05;8.35;;;1.32;;
24206;SDS011;12351;52.284;9.160;2022-11-02T00:53:53;7.28;;;1.37;;
24206;SDS011;12351;52.284;9.160;2022-11-02T00:56:42;8.53;;;1.70;;
24206;SDS011;12351;52.284;9.160;2022-11-02T00:59:32;8.38;;;1.37;;
24206;SDS011;12351;52.284;9.160;2022-11-02T01:02:20;8.43;;;1.50;;
24206;SDS011;12351;52.284;9.160;2022-11-02T01:05:10;4.95;;;1.37;;
24206;SDS011;12351;52.284;9.160;2022-11-02T01:07:57;9.73;;;1.50;;
24206;SDS011;12351;52.284;9.160;2022-11-02T01:10:46;8.83;;;1.62;;
24206;SDS011;12351;52.284;9.160;2022-11-02T01:13:34;9.25;;;1.60;;
24206;SDS011;12351;52.284;9.160;2022-11-02T01:16:22;7.85;;;1.40;;
24206;SDS011;12351;52.284;9.160;2022-11-02T01:19:10;6.65;;;1.40;;
24206;SDS011;12351;52.284;9.160;2022-11-02T01:21:59;8.03;;;1.42;;
24206;SDS011;12351;52.284;9.160;2022-11-02T01:24:46;8.55;;;1.30;;
24206;SDS011;12351;52.284;9.160;2022-11-02T01:27:36;8.60;;;1.50;;
24206;SDS011;12351;52.284;9.160;2022-11-02T01:30:23;6.87;;;1.42;;
24206;SDS011;12351;52.284;9.160;2022-11-02T01:33:12;9.78;;;1.87;;
24206;SDS011;12351;52.284;9.160;2022-11-02T01:36:02;10.18;;;1.72;;
24206;SDS011;12351;52.284;9.160;2022-11-02T01:38:50;7.65;;;1.50;;
24206;SDS011;12351;52.284;9.160;2022-11-02T01:41:39;9.13;;;1.30;;
24206;SDS011;12351;52.284;9.160;2022-11-02T01:47:21;8.80;;;1.70;;
24206;SDS011;12351;52.284;9.160;2022-11-02T01:50:09;11.65;;;1.62;;
24206;SDS011;12351;52.284;9.160;2022-11-02T01:52:59;8.28;;;1.52;;
24206;SDS011;12351;52.284;9.160;2022-11-02T01:55:46;12.18;;;1.72;;
24206;SDS011;12351;52.284;9.160;2022-11-02T01:58:35;10.08;;;1.52;;
24206;SDS011;12351;52.284;9.160;2022-11-02T02:01:23;8.15;;;1.77;;
24206;SDS011;12351;52.284;9.160;2022-11-02T02:04:11;9.50;;;1.20;;
24206;SDS011;12351;52.284;9.160;2022-11-02T02:07:00;8.18;;;1.42;;
24206;SDS011;12351;52.284;9.160;2022-11-02T02:09:48;8.18;;;1.40;;
24206;SDS011;12351;52.284;9.160;2022-11-02T02:12:38;10.05;;;1.80;;
24206;SDS011;12351;52.284;9.160;2022-11-02T02:15:33;6.72;;;1.35;;
24206;SDS011;12351;52.284;9.160;2022-11-02T02:21:16;13.98;;;1.95;;
24206;SDS011;12351;52.284;9.160;2022-11-02T02:29:36;5.55;;;1.27;;
24206;SDS011;12351;52.284;9.160;2022-11-02T02:32:25;14.18;;;1.87;;
24206;SDS011;12351;52.284;9.160;2022-11-02T02:38:05;7.30;;;1.50;;
24206;SDS011;12351;52.284;9.160;2022-11-02T02:40:56;5.92;;;1.42;;
24206;SDS011;12351;52.284;9.160;2022-11-02T02:43:46;8.13;;;1.70;;
24206;SDS011;12351;52.284;9.160;2022-11-02T02:46:36;7.05;;;1.37;;
24206;SDS011;12351;52.284;9.160;2022-11-02T02:49:27;6.22;;;1.30;;
24206;SDS011;12351;52.284;9.160;2022-11-02T02:52:15;7.60;;;1.32;;
24206;SDS011;12351;52.284;9.160;2022-11-02T02:55:05;8.90;;;1.52;;
24206;SDS011;12351;52.284;9.160;2022-11-02T02:57:56;10.88;;;1.60;;
24206;SDS011;12351;52.284;9.160;2022-11-02T03:00:45;7.85;;;1.70;;
24206;SDS011;12351;52.284;9.160;2022-11-02T03:03:36;7.20;;;1.52;;
24206;SDS011;12351;52.284;9.160;2022-11-02T03:06:27;7.05;;;1.25;;
24206;SDS011;12351;52.284;9.160;2022-11-02T03:09:18;8.03;;;1.72;;
24206;SDS011;12351;52.284;9.160;2022-11-02T03:20:48;8.38;;;1.52;;
24206;SDS011;12351;52.284;9.160;2022-11-02T03:23:36;9.15;;;1.40;;
24206;SDS011;12351;52.284;9.160;2022-11-02T03:31:55;6.45;;;1.30;;
24206;SDS011;12351;52.284;9.160;2022-11-02T03:34:47;11.57;;;1.80;;
24206;SDS011;12351;52.284;9.160;2022-11-02T03:37:39;14.03;;;2.00;;
24206;SDS011;12351;52.284;9.160;2022-11-02T03:43:19;13.43;;;1.42;;
24206;SDS011;12351;52.284;9.160;2022-11-02T03:46:09;7.53;;;1.77;;
24206;SDS011;12351;52.284;9.160;2022-11-02T03:48:58;7.95;;;1.52;;
24206;SDS011;12351;52.284;9.160;2022-11-02T03:51:48;9.38;;;1.60;;
24206;SDS011;12351;52.284;9.160;2022-11-02T03:54:40;8.10;;;1.35;;
24206;SDS011;12351;52.284;9.160;2022-11-02T03:57:31;9.33;;;1.47;;
24206;SDS011;12351;52.284;9.160;2022-11-02T04:00:21;10.98;;;1.67;;
24206;SDS011;12351;52.284;9.160;2022-11-02T04:03:10;10.58;;;1.52;;
24206;SDS011;12351;52.284;9.160;2022-11-02T04:05:58;11.83;;;1.85;;
24206;SDS011;12351;52.284;9.160;2022-11-02T04:08:47;5.90;;;1.15;;
24206;SDS011;12351;52.284;9.160;2022-11-02T04:11:37;13.90;;;1.82;;
24206;SDS011;12351;52.284;9.160;2022-11-02T04:14:26;8.60;;;1.95;;
24206;SDS011;12351;52.284;9.160;2022-11-02T04:17:15;12.15;;;1.92;;
24206;SDS011;12351;52.284;9.160;2022-11-02T04:20:04;7.40;;;1.40;;
24206;SDS011;12351;52.284;9.160;2022-11-02T04:22:52;7.67;;;1.75;;
24206;SDS011;12351;52.284;9.160;2022-11-02T04:25:41;9.10;;;1.55;;
24206;SDS011;12351;52.284;9.160;2022-11-02T04:28:30;11.90;;;1.57;;
24206;SDS011;12351;52.284;9.160;2022-11-02T04:31:18;9.53;;;1.80;;
24206;SDS011;12351;52.284;9.160;2022-11-02T04:34:07;9.30;;;1.65;;
24206;SDS011;12351;52.284;9.160;2022-11-02T04:36:55;8.85;;;1.72;;
24206;SDS011;12351;52.284;9.160;2022-11-02T04:39:43;9.43;;;1.65;;
24206;SDS011;12351;52.284;9.160;2022-11-02T04:42:31;7.42;;;1.67;;
24206;SDS011;12351;52.284;9.160;2022-11-02T04:45:18;9.03;;;1.80;;
24206;SDS011;12351;52.284;9.160;2022-11-02T04:48:06;8.83;;;1.50;;
24206;SDS011;12351;52.284;9.160;2022-11-02T04:50:56;9.50;;;1.65;;
24206;SDS011;12351;52.284;9.160;2022-11-02T04:53:44;6.37;;;1.30;;
24206;SDS011;12351;52.284;9.160;2022-11-02T04:56:35;8.50;;;1.77;;
24206;SDS011;12351;52.284;9.160;2022-11-02T04:59:25;9.90;;;1.50;;
24206;SDS011;12351;52.284;9.160;2022-11-02T05:02:14;7.45;;;1.70;;
24206;SDS011;12351;52.284;9.160;2022-11-02T05:05:04;8.38;;;1.52;;
24206;SDS011;12351;52.284;9.160;2022-11-02T05:07:51;5.35;;;1.35;;
24206;SDS011;12351;52.284;9.160;2022-11-02T05:10:40;6.45;;;1.35;;
24206;SDS011;12351;52.284;9.160;2022-11-02T05:13:29;6.65;;;1.50;;
24206;SDS011;12351;52.284;9.160;2022-11-02T05:16:17;7.97;;;1.62;;
24206;SDS011;12351;52.284;9.160;2022-11-02T05:19:05;8.10;;;1.22;;
24206;SDS011;12351;52.284;9.160;2022-11-02T05:21:55;7.25;;;1.40;;
24206;SDS011;12351;52.284;9.160;2022-11-02T05:24:43;10.82;;;1.60;;
24206;SDS011;12351;52.284;9.160;2022-11-02T05:27:32;9.80;;;1.57;;
24206;SDS011;12351;52.284;9.160;2022-11-02T05:30:24;11.65;;;1.70;;
24206;SDS011;12351;52.284;9.160;2022-11-02T05:33:12;6.78;;;1.55;;
24206;SDS011;12351;52.284;9.160;2022-11-02T05:36:03;13.62;;;1.70;;
24206;SDS011;12351;52.284;9.160;2022-11-02T05:38:54;8.20;;;1.95;;
24206;SDS011;12351;52.284;9.160;2022-11-02T05:41:43;11.03;;;2.25;;
24206;SDS011;12351;52.284;9.160;2022-11-02T05:44:30;8.08;;;1.77;;
24206;SDS011;12351;52.284;9.160;2022-11-02T05:47:18;6.97;;;1.40;;
24206;SDS011;12351;52.284;9.160;2022-11-02T05:50:07;9.90;;;1.82;;
24206;SDS011;12351;52.284;9.160;2022-11-02T05:52:57;10.28;;;1.95;;
24206;SDS011;12351;52.284;9.160;2022-11-02T05:55:46;8.28;;;1.80;;
24206;SDS011;12351;52.284;9.160;2022-11-02T05:58:37;10.32;;;1.67;;
24206;SDS011;12351;52.284;9.160;2022-11-02T06:01:24;8.00;;;1.60;;
24206;SDS011;12351;52.284;9.160;2022-11-02T06:04:11;11.22;;;1.70;;
24206;SDS011;12351;52.284;9.160;2022-11-02T06:06:59;8.48;;;1.60;;
24206;SDS011;12351;52.284;9.160;2022-11-02T06:09:46;10.48;;;2.00;;
24206;SDS011;12351;52.284;9.160;2022-11-02T06:12:35;8.85;;;1.52;;
24206;SDS011;12351;52.284;9.160;2022-11-02T06:15:22;9.53;;;1.77;;
24206;SDS011;12351;52.284;9.160;2022-11-02T06:18:10;6.55;;;1.55;;
24206;SDS011;12351;52.284;9.160;2022-11-02T06:21:01;6.17;;;1.32;;
24206;SDS011;12351;52.284;9.160;2022-11-02T06:23:50;7.75;;;1.62;;
24206;SDS011;12351;52.284;9.160;2022-11-02T06:26:41;7.75;;;1.52;;
24206;SDS011;12351;52.284;9.160;2022-11-02T06:29:29;8.63;;;1.70;;
24206;SDS011;12351;52.284;9.160;2022-11-02T06:32:18;7.03;;;1.70;;
24206;SDS011;12351;52.284;9.160;2022-11-02T06:35:05;12.18;;;1.70;;
24206;SDS011;12351;52.284;9.160;2022-11-02T06:37:54;8.50;;;1.40;;
24206;SDS011;12351;52.284;9.160;2022-11-02T06:40:42;8.75;;;1.57;;
24206;SDS011;12351;52.284;9.160;2022-11-02T06:43:31;10.45;;;1.72;;
24206;SDS011;12351;52.284;9.160;2022-11-02T06:46:20;7.70;;;1.50;;
24206;SDS011;12351;52.284;9.160;2022-11-02T06:49:08;10.35;;;1.90;;
24206;SDS011;12351;52.284;9.160;2022-11-02T06:51:57;8.48;;;1.40;;
24206;SDS011;12351;52.284;9.160;2022-11-02T06:54:45;8.48;;;1.50;;
24206;SDS011;12351;52.284;9.160;2022-11-02T07:00:22;10.90;;;1.82;;
24206;SDS011;12351;52.284;9.160;2022-11-02T07:03:11;9.63;;;1.62;;
24206;SDS011;12351;52.284;9.160;2022-11-02T07:05:59;9.25;;;1.70;;
24206;SDS011;12351;52.284;9.160;2022-11-02T07:08:49;8.05;;;1.85;;
24206;SDS011;12351;52.284;9.160;2022-11-02T07:11:36;10.43;;;1.90;;
24206;SDS011;12351;52.284;9.160;2022-11-02T07:14:24;10.15;;;2.00;;
24206;SDS011;12351;52.284;9.160;2022-11-02T07:17:12;10.15;;;1.52;;
24206;SDS011;12351;52.284;9.160;2022-11-02T07:20:01;8.48;;;1.50;;
24206;SDS011;12351;52.284;9.160;2022-11-02T07:22:51;11.00;;;2.25;;
24206;SDS011;12351;52.284;9.160;2022-11-02T07:25:39;8.88;;;1.77;;
24206;SDS011;12351;52.284;9.160;2022-11-02T07:28:27;8.98;;;1.60;;
24206;SDS011;12351;52.284;9.160;2022-11-02T07:31:15;10.95;;;1.90;;
24206;SDS011;12351;52.284;9.160;2022-11-02T07:34:04;7.37;;;1.72;;
24206;SDS011;12351;52.284;9.160;2022-11-02T07:36:54;8.13;;;1.95;;
24206;SDS011;12351;52.284;9.160;2022-11-02T07:39:42;7.35;;;1.65;;
24206;SDS011;12351;52.284;9.160;2022-11-02T07:42:31;8.25;;;1.55;;
24206;SDS011;12351;52.284;9.160;2022-11-02T07:45:21;12.73;;;1.75;;
24206;SDS011;12351;52.284;9.160;2022-11-02T07:48:12;10.08;;;2.10;;
24206;SDS011;12351;52.284;9.160;2022-11-02T07:51:02;9.48;;;1.90;;
24206;SDS011;12351;52.284;9.160;2022-11-02T07:53:50;8.90;;;1.90;;
24206;SDS011;12351;52.284;9.160;2022-11-02T07:56:40;9.95;;;1.50;;
24206;SDS011;12351;52.284;9.160;2022-11-02T07:59:29;8.65;;;1.80;;
24206;SDS011;12351;52.284;9.160;2022-11-02T08:02:17;8.28;;;1.42;;
24206;SDS011;12351;52.284;9.160;2022-11-02T08:05:07;9.10;;;1.70;;
24206;SDS011;12351;52.284;9.160;2022-11-02T08:10:44;8.60;;;2.10;;
24206;SDS011;12351;52.284;9.160;2022-11-02T08:13:34;6.22;;;1.37;;
24206;SDS011;12351;52.284;9.160;2022-11-02T08:16:26;9.43;;;1.60;;
24206;SDS011;12351;52.284;9.160;2022-11-02T08:19:14;9.83;;;1.57;;
24206;SDS011;12351;52.284;9.160;2022-11-02T08:22:04;7.42;;;1.50;;
24206;SDS011;12351;52.284;9.160;2022-11-02T08:24:53;5.65;;;1.60;;
24206;SDS011;12351;52.284;9.160;2022-11-02T08:27:41;6.53;;;1.37;;
24206;SDS011;12351;52.284;9.160;2022-11-02T08:30:29;9.23;;;1.65;;
24206;SDS011;12351;52.284;9.160;2022-11-02T08:33:17;7.05;;;1.67;;
24206;SDS011;12351;52.284;9.160;2022-11-02T08:36:08;8.98;;;1.90;;
24206;SDS011;12351;52.284;9.160;2022-11-02T08:38:56;5.97;;;1.57;;
24206;SDS011;12351;52.284;9.160;2022-11-02T08:41:43;10.70;;;1.50;;
24206;SDS011;12351;52.284;9.160;2022-11-02T08:44:32;10.93;;;1.85;;
24206;SDS011;12351;52.284;9.160;2022-11-02T08:47:21;8.13;;;1.95;;
24206;SDS011;12351;52.284;9.160;2022-11-02T08:50:11;6.42;;;1.72;;
24206;SDS011;12351;52.284;9.160;2022-11-02T08:52:59;4.50;;;1.35;;
24206;SDS011;12351;52.284;9.160;2022-11-02T08:55:46;7.78;;;1.75;;
24206;SDS011;12351;52.284;9.160;2022-11-02T08:58:34;10.38;;;1.80;;
24206;SDS011;12351;52.284;9.160;2022-11-02T09:01:22;7.87;;;1.60;;
24206;SDS011;12351;52.284;9.160;2022-11-02T09:04:11;9.83;;;1.95;;
24206;SDS011;12351;52.284;9.160;2022-11-02T09:07:01;8.68;;;1.52;;
24206;SDS011;12351;52.284;9.160;2022-11-02T09:09:50;8.25;;;1.40;;
24206;SDS011;12351;52.284;9.160;2022-11-02T09:12:39;5.45;;;1.32;;
24206;SDS011;12351;52.284;9.160;2022-11-02T09:15:27;8.25;;;1.98;;
24206;SDS011;12351;52.284;9.160;2022-11-02T09:18:15;9.98;;;2.15;;
24206;SDS011;12351;52.284;9.160;2022-11-02T09:21:04;6.58;;;1.62;;
24206;SDS011;12351;52.284;9.160;2022-11-02T09:23:54;8.83;;;1.55;;
24206;SDS011;12351;52.284;9.160;2022-11-02T09:26:44;7.72;;;1.60;;
24206;SDS011;12351;52.284;9.160;2022-11-02T09:29:32;5.05;;;1.22;;
24206;SDS011;12351;52.284;9.160;2022-11-02T09:32:22;6.67;;;1.30;;
24206;SDS011;12351;52.284;9.160;2022-11-02T09:35:10;6.90;;;1.50;;
24206;SDS011;12351;52.284;9.160;2022-11-02T09:37:58;4.67;;;1.17;;
24206;SDS011;12351;52.284;9.160;2022-11-02T09:43:41;7.17;;;1.40;;
24206;SDS011;12351;52.284;9.160;2022-11-02T09:46:32;8.75;;;1.30;;
24206;SDS011;12351;52.284;9.160;2022-11-02T09:49:21;7.08;;;1.40;;
24206;SDS011;12351;52.284;9.160;2022-11-02T09:52:12;4.72;;;1.17;;
24206;SDS011;12351;52.284;9.160;2022-11-02T09:55:02;7.05;;;1.50;;
24206;SDS011;12351;52.284;9.160;2022-11-02T09:57:53;6.10;;;1.12;;
24206;SDS011;12351;52.284;9.160;2022-11-02T10:00:42;7.67;;;1.30;;
24206;SDS011;12351;52.284;9.160;2022-11-02T10:06:21;6.87;;;1.27;;
24206;SDS011;12351;52.284;9.160;2022-11-02T10:14:55;11.68;;;1.30;;
24206;SDS011;12351;52.284;9.160;2022-11-02T10:17:43;8.63;;;1.22;;
24206;SDS011;12351;52.284;9.160;2022-11-02T10:20:36;8.85;;;1.10;;
24206;SDS011;12351;52.284;9.160;2022-11-02T10:23:28;5.05;;;1.45;;
24206;SDS011;12351;52.284;9.160;2022-11-02T10:26:18;10.75;;;1.30;;
24206;SDS011;12351;52.284;9.160;2022-11-02T10:31:58;6.35;;;1.10;;
24206;SDS011;12351;52.284;9.160;2022-11-02T10:34:47;6.12;;;1.20;;
24206;SDS011;12351;52.284;9.160;2022-11-02T10:48:50;9.38;;;1.02;;
24206;SDS011;12351;52.284;9.160;2022-11-02T10:51:36;6.12;;;1.22;;
24206;SDS011;12351;52.284;9.160;2022-11-02T10:54:26;8.20;;;1.55;;
24206;SDS011;12351;52.284;9.160;2022-11-02T10:57:13;6.25;;;1.47;;
24206;SDS011;12351;52.284;9.160;2022-11-02T11:08:38;7.95;;;1.65;;
24206;SDS011;12351;52.284;9.160;2022-11-02T11:11:32;3.67;;;0.90;;
24206;SDS011;12351;52.284;9.160;2022-11-02T11:14:21;6.15;;;1.10;;
24206;SDS011;12351;52.284;9.160;2022-11-02T11:17:13;10.40;;;1.40;;
24206;SDS011;12351;52.284;9.160;2022-11-02T11:20:03;7.25;;;1.32;;
24206;SDS011;12351;52.284;9.160;2022-11-02T11:23:06;5.28;;;1.10;;
24206;SDS011;12351;52.284;9.160;2022-11-02T11:25:42;4.75;;;1.10;;
24206;SDS011;12351;52.284;9.160;2022-11-02T11:37:06;6.70;;;1.25;;
24206;SDS011;12351;52.284;9.160;2022-11-02T11:39:57;6.58;;;1.20;;
24206;SDS011;12351;52.284;9.160;2022-11-02T11:42:48;6.42;;;1.50;;
24206;SDS011;12351;52.284;9.160;2022-11-02T11:45:37;7.78;;;1.07;;
24206;SDS011;12351;52.284;9.160;2022-11-02T11:48:33;6.12;;;1.45;;
24206;SDS011;12351;52.284;9.160;2022-11-02T11:51:23;6.30;;;0.98;;
24206;SDS011;12351;52.284;9.160;2022-11-02T11:56:58;6.12;;;1.20;;
24206;SDS011;12351;52.284;9.160;2022-11-02T11:59:49;9.08;;;1.40;;
24206;SDS011;12351;52.284;9.160;2022-11-02T12:02:38;9.70;;;1.22;;
24206;SDS011;12351;52.284;9.160;2022-11-02T12:05:28;4.08;;;0.90;;
24206;SDS011;12351;52.284;9.160;2022-11-02T12:19:31;6.15;;;1.30;;
24206;SDS011;12351;52.284;9.160;2022-11-02T12:39:09;7.55;;;1.20;;
24206;SDS011;12351;52.284;9.160;2022-11-02T12:42:02;5.78;;;1.32;;
24206;SDS011;12351;52.284;9.160;2022-11-02T12:47:46;6.33;;;1.40;;
24206;SDS011;12351;52.284;9.160;2022-11-02T12:56:17;6.30;;;1.17;;
24206;SDS011;12351;52.284;9.160;2022-11-02T12:59:03;8.18;;;1.25;;
24206;SDS011;12351;52.284;9.160;2022-11-02T13:01:53;5.17;;;1.20;;
24206;SDS011;12351;52.284;9.160;2022-11-02T13:07:37;8.53;;;1.65;;
24206;SDS011;12351;52.284;9.160;2022-11-02T13:10:29;4.17;;;1.22;;
24206;SDS011;12351;52.284;9.160;2022-11-02T13:16:10;7.25;;;1.35;;
24206;SDS011;12351;52.284;9.160;2022-11-02T13:18:58;10.93;;;1.30;;
24206;SDS011;12351;52.284;9.160;2022-11-02T13:21:50;5.08;;;1.17;;
24206;SDS011;12351;52.284;9.160;2022-11-02T13:24:41;6.67;;;1.10;;
24206;SDS011;12351;52.284;9.160;2022-11-02T13:27:31;4.28;;;1.10;;
24206;SDS011;12351;52.284;9.160;2022-11-02T13:30:19;6.62;;;1.07;;
24206;SDS011;12351;52.284;9.160;2022-11-02T13:35:59;7.53;;;1.40;;
24206;SDS011;12351;52.284;9.160;2022-11-02T13:41:40;6.62;;;1.60;;
24206;SDS011;12351;52.284;9.160;2022-11-02T13:44:32;7.25;;;1.17;;
24206;SDS011;12351;52.284;9.160;2022-11-02T13:47:24;6.80;;;1.50;;
24206;SDS011;12351;52.284;9.160;2022-11-02T13:50:10;6.22;;;1.10;;
24206;SDS011;12351;52.284;9.160;2022-11-02T13:53:01;5.60;;;1.12;;
24206;SDS011;12351;52.284;9.160;2022-11-02T13:55:54;6.05;;;1.45;;
24206;SDS011;12351;52.284;9.160;2022-11-02T13:58:45;6.97;;;1.60;;
24206;SDS011;12351;52.284;9.160;2022-11-02T14:01:35;6.50;;;1.35;;
24206;SDS011;12351;52.284;9.160;2022-11-02T14:04:24;11.57;;;1.37;;
24206;SDS011;12351;52.284;9.160;2022-11-02T14:10:07;5.10;;;1.27;;
24206;SDS011;12351;52.284;9.160;2022-11-02T14:12:57;6.50;;;1.50;;
24206;SDS011;12351;52.284;9.160;2022-11-02T14:15:47;8.00;;;1.40;;
24206;SDS011;12351;52.284;9.160;2022-11-02T14:18:38;5.35;;;1.22;;
24206;SDS011;12351;52.284;9.160;2022-11-02T14:30:00;6.53;;;1.20;;
24206;SDS011;12351;52.284;9.160;2022-11-02T14:35:39;4.97;;;1.25;;
24206;SDS011;12351;52.284;9.160;2022-11-02T14:47:05;5.85;;;1.30;;
24206;SDS011;12351;52.284;9.160;2022-11-02T14:49:53;4.30;;;1.10;;
24206;SDS011;12351;52.284;9.160;2022-11-02T14:55:34;6.78;;;1.20;;
24206;SDS011;12351;52.284;9.160;2022-11-02T14:58:27;9.05;;;1.10;;
24206;SDS011;12351;52.284;9.160;2022-11-02T15:01:14;9.03;;;1.27;;
24206;SDS011;12351;52.284;9.160;2022-11-02T15:06:53;5.03;;;1.30;;
24206;SDS011;12351;52.284;9.160;2022-11-02T15:12:35;6.08;;;1.15;;
24206;SDS011;12351;52.284;9.160;2022-11-02T15:29:32;4.70;;;1.72;;
24206;SDS011;12351;52.284;9.160;2022-11-02T15:32:23;6.47;;;1.40;;
24206;SDS011;12351;52.284;9.160;2022-11-02T15:35:13;6.65;;;1.50;;
24206;SDS011;12351;52.284;9.160;2022-11-02T15:38:03;5.12;;;1.77;;
24206;SDS011;12351;52.284;9.160;2022-11-02T15:40:53;7.47;;;1.90;;
24206;SDS011;12351;52.284;9.160;2022-11-02T16:00:30;7.70;;;1.15;;
24206;SDS011;12351;52.284;9.160;2022-11-02T16:03:17;5.78;;;1.10;;
24206;SDS011;12351;52.284;9.160;2022-11-02T16:06:07;6.90;;;1.35;;
24206;SDS011;12351;52.284;9.160;2022-11-02T16:08:57;9.55;;;1.32;;
24206;SDS011;12351;52.284;9.160;2022-11-02T16:14:42;6.35;;;1.30;;
24206;SDS011;12351;52.284;9.160;2022-11-02T16:17:34;5.87;;;1.20;;
24206;SDS011;12351;52.284;9.160;2022-11-02T16:20:25;3.77;;;1.12;;
24206;SDS011;12351;52.284;9.160;2022-11-02T16:23:15;5.97;;;1.50;;
24206;SDS011;12351;52.284;9.160;2022-11-02T16:26:09;5.75;;;1.50;;
24206;SDS011;12351;52.284;9.160;2022-11-02T16:28:56;6.37;;;1.70;;
24206;SDS011;12351;52.284;9.160;2022-11-02T16:31:50;8.00;;;2.08;;
24206;SDS011;12351;52.284;9.160;2022-11-02T16:34:39;10.68;;;1.80;;
24206;SDS011;12351;52.284;9.160;2022-11-02T16:37:30;7.40;;;1.52;;
24206;SDS011;12351;52.284;9.160;2022-11-02T16:40:19;5.67;;;1.50;;
24206;SDS011;12351;52.284;9.160;2022-11-02T16:43:13;8.78;;;1.50;;
24206;SDS011;12351;52.284;9.160;2022-11-02T16:46:04;5.42;;;1.27;;
24206;SDS011;12351;52.284;9.160;2022-11-02T16:57:29;5.90;;;1.50;;
24206;SDS011;12351;52.284;9.160;2022-11-02T17:00:19;6.08;;;1.32;;
24206;SDS011;12351;52.284;9.160;2022-11-02T17:03:12;6.65;;;1.20;;
24206;SDS011;12351;52.284;9.160;2022-11-02T17:06:03;9.53;;;1.47;;
24206;SDS011;12351;52.284;9.160;2022-11-02T17:08:53;7.00;;;1.47;;
24206;SDS011;12351;52.284;9.160;2022-11-02T17:11:45;8.73;;;1.72;;
24206;SDS011;12351;52.284;9.160;2022-11-02T17:14:39;7.17;;;1.70;;
24206;SDS011;12351;52.284;9.160;2022-11-02T17:20:21;7.70;;;1.55;;
24206;SDS011;12351;52.284;9.160;2022-11-02T17:26:17;9.60;;;1.60;;
24206;SDS011;12351;52.284;9.160;2022-11-02T17:28:55;7.45;;;1.70;;
24206;SDS011;12351;52.284;9.160;2022-11-02T17:34:46;7.17;;;2.10;;
24206;SDS011;12351;52.284;9.160;2022-11-02T17:37:31;10.00;;;2.65;;
24206;SDS011;12351;52.284;9.160;2022-11-02T17:40:20;8.73;;;2.30;;
24206;SDS011;12351;52.284;9.160;2022-11-02T17:43:09;11.70;;;2.72;;
24206;SDS011;12351;52.284;9.160;2022-11-02T17:46:00;9.15;;;2.80;;
24206;SDS011;12351;52.284;9.160;2022-11-02T17:48:50;9.48;;;1.80;;
24206;SDS011;12351;52.284;9.160;2022-11-02T17:51:41;10.88;;;2.55;;
24206;SDS011;12351;52.284;9.160;2022-11-02T17:54:31;11.20;;;2.00;;
24206;SDS011;12351;52.284;9.160;2022-11-02T17:57:23;7.37;;;1.70;;
24206;SDS011;12351;52.284;9.160;2022-11-02T18:00:14;8.83;;;1.87;;
24206;SDS011;12351;52.284;9.160;2022-11-02T18:03:04;6.80;;;1.32;;
24206;SDS011;12351;52.284;9.160;2022-11-02T18:05:53;5.12;;;1.57;;
24206;SDS011;12351;52.284;9.160;2022-11-02T18:08:41;9.33;;;1.75;;
24206;SDS011;12351;52.284;9.160;2022-11-02T18:11:32;7.15;;;1.60;;
24206;SDS011;12351;52.284;9.160;2022-11-02T18:14:22;7.92;;;1.40;;
24206;SDS011;12351;52.284;9.160;2022-11-02T18:17:12;9.13;;;2.20;;
24206;SDS011;12351;52.284;9.160;2022-11-02T18:20:04;7.15;;;1.90;;
24206;SDS011;12351;52.284;9.160;2022-11-02T18:22:55;8.78;;;1.85;;
24206;SDS011;12351;52.284;9.160;2022-11-02T18:25:46;6.83;;;1.47;;
24206;SDS011;12351;52.284;9.160;2022-11-02T18:28:37;5.97;;;1.70;;
24206;SDS011;12351;52.284;9.160;2022-11-02T18:31:26;7.95;;;1.72;;
24206;SDS011;12351;52.284;9.160;2022-11-02T18:34:19;7.72;;;2.05;;
24206;SDS011;12351;52.284;9.160;2022-11-02T18:37:09;8.15;;;1.72;;
24206;SDS011;12351;52.284;9.160;2022-11-02T18:40:00;6.12;;;1.52;;
24206;SDS011;12351;52.284;9.160;2022-11-02T18:42:52;7.50;;;1.92;;
24206;SDS011;12351;52.284;9.160;2022-11-02T18:45:40;10.70;;;1.98;;
24206;SDS011;12351;52.284;9.160;2022-11-02T18:48:31;12.00;;;2.40;;
24206;SDS011;12351;52.284;9.160;2022-11-02T18:51:21;8.73;;;1.92;;
24206;SDS011;12351;52.284;9.160;2022-11-02T18:54:12;9.38;;;2.70;;
24206;SDS011;12351;52.284;9.160;2022-11-02T18:57:02;8.03;;;2.10;;
24206;SDS011;12351;52.284;9.160;2022-11-02T18:59:51;10.10;;;3.17;;
24206;SDS011;12351;52.284;9.160;2022-11-02T19:02:43;12.80;;;3.12;;
24206;SDS011;12351;52.284;9.160;2022-11-02T19:05:33;14.20;;;3.90;;
24206;SDS011;12351;52.284;9.160;2022-11-02T19:08:25;15.08;;;3.10;;
24206;SDS011;12351;52.284;9.160;2022-11-02T19:11:15;8.30;;;2.50;;
24206;SDS011;12351;52.284;9.160;2022-11-02T19:14:06;10.08;;;3.37;;
24206;SDS011;12351;52.284;9.160;2022-11-02T19:16:56;6.97;;;1.55;;
24206;SDS011;12351;52.284;9.160;2022-11-02T19:19:49;6.62;;;1.32;;
24206;SDS011;12351;52.284;9.160;2022-11-02T19:22:41;7.50;;;1.70;;
24206;SDS011;12351;52.284;9.160;2022-11-02T19:25:32;7.22;;;1.42;;
24206;SDS011;12351;52.284;9.160;2022-11-02T19:28:22;7.25;;;1.30;;
24206;SDS011;12351;52.284;9.160;2022-11-02T19:31:11;6.22;;;1.45;;
24206;SDS011;12351;52.284;9.160;2022-11-02T19:34:01;6.33;;;1.52;;
24206;SDS011;12351;52.284;9.160;2022-11-02T19:36:54;5.95;;;1.40;;
24206;SDS011;12351;52.284;9.160;2022-11-02T19:39:42;6.53;;;1.40;;
24206;SDS011;12351;52.284;9.160;2022-11-02T19:42:34;9.68;;;1.72;;
24206;SDS011;12351;52.284;9.160;2022-11-02T19:45:25;6.47;;;1.55;;
24206;SDS011;12351;52.284;9.160;2022-11-02T19:48:15;7.58;;;1.30;;
24206;SDS011;12351;52.284;9.160;2022-11-02T19:51:06;6.50;;;1.32;;
24206;SDS011;12351;52.284;9.160;2022-11-02T19:53:57;11.12;;;1.45;;
24206;SDS011;12351;52.284;9.160;2022-11-02T19:56:49;7.28;;;1.60;;
24206;SDS011;12351;52.284;9.160;2022-11-02T19:59:40;7.07;;;1.50;;
24206;SDS011;12351;52.284;9.160;2022-11-02T20:02:29;7.17;;;1.55;;
24206;SDS011;12351;52.284;9.160;2022-11-02T20:05:17;6.45;;;1.10;;
24206;SDS011;12351;52.284;9.160;2022-11-02T20:08:07;6.60;;;1.47;;
24206;SDS011;12351;52.284;9.160;2022-11-02T20:13:49;6.42;;;1.37;;
24206;SDS011;12351;52.284;9.160;2022-11-02T20:16:40;6.60;;;1.17;;
24206;SDS011;12351;52.284;9.160;2022-11-02T20:19:31;9.85;;;1.62;;
24206;SDS011;12351;52.284;9.160;2022-11-02T20:25:10;6.87;;;1.52;;
24206;SDS011;12351;52.284;9.160;2022-11-02T20:28:01;5.90;;;1.22;;
24206;SDS011;12351;52.284;9.160;2022-11-02T20:30:51;8.28;;;1.62;;
24206;SDS011;12351;52.284;9.160;2022-11-02T20:33:42;9.13;;;1.50;;
24206;SDS011;12351;52.284;9.160;2022-11-02T20:36:33;7.72;;;1.57;;